createdAt,value
2022-08-24T00:01:41.333Z,26.80
2022-08-24T00:04:32.185Z,26.80
2022-08-24T00:07:27.332Z,26.70
2022-08-24T00:10:17.312Z,26.70
2022-08-24T00:13:05.781Z,26.70
2022-08-24T00:15:54.239Z,26.70
2022-08-24T00:18:42.763Z,26.60
2022-08-24T00:21:31.266Z,26.70
2022-08-24T00:24:21.148Z,26.60
2022-08-24T00:27:11.416Z,26.60
2022-08-24T00:29:59.874Z,26.50
2022-08-24T00:32:49.009Z,26.50
2022-08-24T00:35:37.832Z,26.50
2022-08-24T00:38:27.764Z,26.50
2022-08-24T00:41:19.693Z,26.40
2022-08-24T00:44:08.377Z,26.40
2022-08-24T00:47:00.677Z,26.30
2022-08-24T00:49:55.484Z,26.20
2022-08-24T00:52:47.719Z,26.10
2022-08-24T00:55:38.957Z,26.20
2022-08-24T00:58:32.950Z,26.00
2022-08-24T01:01:21.534Z,25.90
2022-08-24T01:04:10.753Z,25.90
2022-08-24T01:06:59.590Z,25.70
2022-08-24T01:09:47.979Z,25.60
2022-08-24T01:12:37.871Z,25.50
2022-08-24T01:15:27.662Z,25.50
2022-08-24T01:18:36.967Z,25.40
2022-08-24T01:21:28.774Z,25.30
2022-08-24T01:24:18.649Z,25.20
2022-08-24T01:27:09.312Z,25.10
2022-08-24T01:29:58.428Z,25.10
2022-08-24T01:32:54.198Z,24.90
2022-08-24T01:35:42.825Z,24.80
2022-08-24T01:38:31.319Z,24.80
2022-08-24T01:41:21.191Z,24.80
2022-08-24T01:44:09.751Z,24.90
2022-08-24T01:46:58.756Z,24.70
2022-08-24T01:49:49.396Z,24.80
2022-08-24T01:53:03.926Z,24.80
2022-08-24T01:55:51.672Z,24.80
2022-08-24T01:58:46.574Z,24.90
2022-08-24T02:01:38.132Z,24.90
2022-08-24T02:04:26.939Z,25.00
2022-08-24T02:07:17.033Z,25.20
2022-08-24T02:10:07.029Z,25.20
2022-08-24T02:12:58.680Z,25.20
2022-08-24T02:15:49.213Z,25.20
2022-08-24T02:18:40.548Z,25.30
2022-08-24T02:21:29.204Z,25.30
2022-08-24T02:24:17.835Z,25.30
2022-08-24T02:27:06.911Z,25.30
2022-08-24T02:29:56.063Z,25.30
2022-08-24T02:32:45.842Z,25.30
2022-08-24T02:35:34.304Z,25.30
2022-08-24T02:38:23.409Z,25.30
2022-08-24T02:41:12.126Z,25.30
2022-08-24T02:44:02.468Z,25.30
2022-08-24T02:46:50.875Z,25.30
2022-08-24T02:49:41.840Z,25.30
2022-08-24T02:52:30.780Z,25.30
2022-08-24T02:55:20.613Z,25.30
2022-08-24T02:58:12.993Z,25.30
2022-08-24T03:01:01.831Z,25.30
2022-08-24T03:03:50.606Z,25.20
2022-08-24T03:06:40.512Z,25.20
2022-08-24T03:09:29.072Z,25.20
2022-08-24T03:12:19.239Z,25.20
2022-08-24T03:15:09.830Z,25.20
2022-08-24T03:17:58.289Z,25.20
2022-08-24T03:20:49.007Z,25.10
2022-08-24T03:23:39.283Z,25.10
2022-08-24T03:26:27.798Z,25.10
2022-08-24T03:29:16.436Z,25.10
2022-08-24T03:32:05.760Z,25.10
2022-08-24T03:34:54.440Z,25.10
2022-08-24T03:37:42.901Z,25.00
2022-08-24T03:40:33.865Z,25.00
2022-08-24T03:43:40.099Z,25.00
2022-08-24T03:46:29.812Z,24.90
2022-08-24T03:49:18.313Z,24.90
2022-08-24T03:52:07.249Z,24.90
2022-08-24T03:54:56.218Z,24.80
2022-08-24T03:57:47.094Z,24.80
2022-08-24T04:00:37.763Z,24.80
2022-08-24T04:03:26.362Z,24.70
2022-08-24T04:06:18.144Z,24.70
2022-08-24T04:09:07.626Z,24.60
2022-08-24T04:11:59.236Z,24.50
2022-08-24T04:14:51.846Z,24.70
2022-08-24T04:17:40.284Z,24.40
2022-08-24T04:20:28.841Z,24.40
2022-08-24T04:23:18.939Z,24.40
2022-08-24T04:26:07.795Z,24.50
2022-08-24T04:28:56.513Z,24.30
2022-08-24T04:31:46.910Z,24.30
2022-08-24T04:34:35.959Z,24.30
2022-08-24T04:37:28.456Z,24.50
2022-08-24T04:40:19.370Z,24.30
2022-08-24T04:43:09.828Z,24.30
2022-08-24T04:45:59.648Z,24.40
2022-08-24T04:48:50.310Z,24.30
2022-08-24T04:51:39.057Z,24.20
2022-08-24T04:54:29.362Z,24.20
2022-08-24T04:57:28.109Z,24.10
2022-08-24T05:00:19.496Z,24.00
2022-08-24T05:03:08.172Z,24.00
2022-08-24T05:05:58.076Z,23.90
2022-08-24T05:08:47.499Z,23.90
2022-08-24T05:11:37.147Z,23.80
2022-08-24T05:14:29.239Z,23.70
2022-08-24T05:17:18.158Z,23.80
2022-08-24T05:20:08.808Z,23.80
2022-08-24T05:23:05.043Z,23.60
2022-08-24T05:25:54.912Z,23.50
2022-08-24T05:28:43.521Z,23.50
2022-08-24T05:31:33.748Z,23.60
2022-08-24T05:34:27.829Z,23.50
2022-08-24T05:37:16.713Z,23.70
2022-08-24T05:40:34.231Z,23.60
2022-08-24T05:43:23.788Z,23.60
2022-08-24T05:46:12.250Z,23.70
2022-08-24T05:49:01.236Z,23.80
2022-08-24T05:51:54.191Z,24.20
2022-08-24T05:54:43.052Z,24.20
2022-08-24T05:57:35.195Z,24.50
2022-08-24T06:00:38.494Z,24.70
2022-08-24T06:03:27.081Z,24.90
2022-08-24T06:06:15.871Z,25.00
2022-08-24T06:09:05.540Z,25.10
2022-08-24T06:11:54.499Z,25.20
2022-08-24T06:14:47.579Z,25.30
2022-08-24T06:17:38.482Z,25.50
2022-08-24T06:20:27.297Z,25.50
2022-08-24T06:23:15.724Z,25.60
2022-08-24T06:26:29.608Z,25.70
2022-08-24T06:29:18.264Z,25.80
2022-08-24T06:32:09.015Z,25.90
2022-08-24T06:34:57.737Z,26.10
2022-08-24T06:37:47.860Z,26.00
2022-08-24T06:40:36.322Z,26.00
2022-08-24T06:43:25.117Z,26.10
2022-08-24T06:46:15.031Z,26.10
2022-08-24T06:49:08.954Z,26.10
2022-08-24T06:52:03.354Z,26.10
2022-08-24T06:54:53.136Z,26.10
2022-08-24T06:57:41.777Z,26.20
2022-08-24T07:00:31.653Z,26.00
2022-08-24T07:03:20.869Z,25.90
2022-08-24T07:06:18.898Z,25.90
2022-08-24T07:09:07.433Z,25.80
2022-08-24T07:11:57.236Z,25.80
2022-08-24T07:14:45.689Z,25.80
2022-08-24T07:17:34.105Z,25.80
2022-08-24T07:20:23.412Z,25.80
2022-08-24T07:23:41.133Z,25.80
2022-08-24T07:26:31.378Z,25.80
2022-08-24T07:32:30.018Z,25.90
2022-08-24T07:35:19.073Z,26.00
2022-08-24T07:38:08.174Z,26.10
2022-08-24T07:41:20.193Z,26.10
2022-08-24T07:44:06.675Z,26.30
2022-08-24T07:46:55.166Z,26.50
2022-08-24T07:49:43.826Z,26.60
2022-08-24T07:52:32.281Z,26.70
2022-08-24T07:55:21.030Z,26.90
2022-08-24T07:58:11.357Z,27.10
2022-08-24T08:01:00.626Z,27.30
2022-08-24T08:03:50.386Z,27.40
2022-08-24T08:06:39.118Z,27.50
2022-08-24T08:09:28.685Z,27.60
2022-08-24T08:12:17.251Z,27.90
2022-08-24T08:15:16.899Z,28.00
2022-08-24T08:18:16.073Z,28.20
2022-08-24T08:21:26.837Z,28.30
2022-08-24T08:24:15.139Z,28.50
2022-08-24T08:27:04.553Z,28.70
2022-08-24T08:29:58.434Z,28.90
2022-08-24T08:32:48.358Z,29.00
2022-08-24T08:35:37.759Z,29.10
2022-08-24T08:38:27.574Z,29.20
2022-08-24T08:41:51.113Z,29.30
2022-08-24T08:45:00.201Z,29.40
2022-08-24T08:48:43.727Z,29.50
2022-08-24T08:51:53.056Z,29.70
2022-08-24T08:54:48.564Z,29.80
2022-08-24T08:58:00.565Z,29.80
2022-08-24T09:00:57.110Z,29.80
2022-08-24T09:04:21.254Z,29.70
2022-08-24T09:07:26.136Z,29.70
2022-08-24T09:10:40.529Z,29.70
2022-08-24T09:16:21.387Z,29.80
2022-08-24T09:19:31.708Z,29.80
2022-08-24T09:22:22.026Z,30.00
2022-08-24T09:25:26.609Z,30.00
2022-08-24T09:28:37.923Z,30.10
2022-08-24T09:31:44.878Z,30.30
2022-08-24T09:34:39.511Z,30.40
2022-08-24T09:37:34.891Z,30.50
2022-08-24T09:40:37.540Z,30.70
2022-08-24T09:44:16.299Z,30.70
2022-08-24T09:47:30.602Z,30.90
2022-08-24T09:50:51.177Z,30.90
2022-08-24T09:54:14.206Z,31.10
2022-08-24T09:57:20.127Z,31.30
2022-08-24T10:00:15.394Z,31.40
2022-08-24T10:03:15.233Z,31.60
2022-08-24T10:06:27.889Z,31.70
2022-08-24T10:09:45.334Z,31.80
2022-08-24T10:12:44.546Z,32.00
2022-08-24T10:15:37.628Z,32.10
2022-08-24T10:18:39.691Z,32.30
2022-08-24T10:21:41.170Z,32.40
2022-08-24T10:25:01.776Z,32.50
2022-08-24T10:27:56.575Z,32.80
2022-08-24T10:31:04.700Z,32.90
2022-08-24T10:34:03.805Z,33.10
2022-08-24T10:37:19.411Z,33.20
2022-08-24T10:40:23.528Z,33.30
2022-08-24T10:43:46.260Z,33.40
2022-08-24T10:46:45.415Z,33.60
2022-08-24T10:50:11.159Z,33.70
2022-08-24T10:53:21.109Z,33.80
2022-08-24T10:56:12.102Z,34.00
2022-08-24T10:59:10.761Z,34.10
2022-08-24T11:02:11.928Z,34.20
2022-08-24T11:05:05.739Z,34.40
2022-08-24T11:07:58.493Z,34.50
2022-08-24T11:10:47.163Z,34.60
2022-08-24T11:13:36.760Z,34.80
2022-08-24T11:16:28.044Z,34.90
2022-08-24T11:19:32.025Z,35.20
2022-08-24T11:22:31.804Z,35.30
2022-08-24T11:25:23.484Z,35.50
2022-08-24T11:28:19.316Z,35.60
2022-08-24T11:31:10.730Z,35.70
2022-08-24T11:34:01.321Z,35.80
2022-08-24T11:36:49.768Z,35.80
2022-08-24T11:39:39.706Z,35.90
2022-08-24T11:42:43.227Z,36.00
2022-08-24T11:45:36.485Z,36.00
2022-08-24T11:48:36.024Z,36.10
2022-08-24T11:51:36.524Z,36.10
2022-08-24T11:54:32.364Z,36.20
2022-08-24T11:57:28.286Z,36.20
2022-08-24T12:00:19.798Z,36.30
2022-08-24T12:03:26.113Z,36.40
2022-08-24T12:06:27.640Z,36.40
2022-08-24T12:09:45.730Z,36.40
2022-08-24T12:12:40.847Z,36.40
2022-08-24T12:15:42.467Z,36.30
2022-08-24T12:18:35.307Z,36.20
2022-08-24T12:21:26.176Z,36.10
2022-08-24T12:24:16.710Z,36.10
2022-08-24T12:27:10.659Z,36.20
2022-08-24T12:30:05.355Z,36.30
2022-08-24T12:32:57.823Z,36.40
2022-08-24T12:35:48.662Z,36.50
2022-08-24T12:38:40.550Z,36.60
2022-08-24T12:41:32.090Z,36.70
2022-08-24T12:44:20.618Z,36.80
2022-08-24T12:47:13.434Z,36.90
2022-08-24T12:50:05.454Z,37.00
2022-08-24T12:53:26.424Z,36.80
2022-08-24T12:56:51.627Z,37.10
2022-08-24T12:59:41.487Z,37.20
2022-08-24T13:02:37.141Z,37.30
2022-08-24T13:05:41.694Z,37.40
2022-08-24T13:08:38.036Z,37.50
2022-08-24T13:11:31.767Z,37.60
2022-08-24T13:14:22.115Z,37.70
2022-08-24T13:17:13.965Z,37.70
2022-08-24T13:20:21.307Z,37.80
2022-08-24T13:23:18.630Z,37.80
2022-08-24T13:26:23.266Z,37.90
2022-08-24T13:29:11.852Z,37.90
2022-08-24T13:32:00.495Z,37.90
2022-08-24T13:34:51.033Z,38.00
2022-08-24T13:37:41.842Z,38.00
2022-08-24T13:40:30.522Z,38.10
2022-08-24T13:43:20.232Z,38.10
2022-08-24T13:46:16.871Z,38.10
2022-08-24T13:49:20.711Z,38.10
2022-08-24T13:52:16.750Z,38.10
2022-08-24T13:55:27.174Z,38.10
2022-08-24T13:58:27.012Z,37.90
2022-08-24T14:01:25.643Z,37.80
2022-08-24T14:04:31.361Z,37.70
2022-08-24T14:07:21.890Z,37.70
2022-08-24T14:10:15.306Z,37.70
2022-08-24T14:13:07.652Z,37.70
2022-08-24T14:16:13.921Z,37.70
2022-08-24T14:19:08.648Z,37.70
2022-08-24T14:22:02.150Z,37.70
2022-08-24T14:24:58.519Z,37.80
2022-08-24T14:27:49.258Z,37.80
2022-08-24T14:30:46.776Z,37.80
2022-08-24T14:33:38.807Z,37.80
2022-08-24T14:36:42.320Z,37.70
2022-08-24T14:39:36.123Z,37.60
2022-08-24T14:42:34.483Z,37.60
2022-08-24T14:45:28.173Z,37.60
2022-08-24T14:48:22.169Z,37.50
2022-08-24T14:51:16.780Z,37.50
2022-08-24T14:54:15.521Z,37.50
2022-08-24T14:57:18.106Z,37.50
2022-08-24T15:00:12.222Z,37.50
2022-08-24T15:03:24.802Z,37.40
2022-08-24T15:06:27.784Z,37.20
2022-08-24T15:09:23.880Z,37.10
2022-08-24T15:12:15.395Z,37.00
2022-08-24T15:15:10.384Z,36.90
2022-08-24T15:18:06.799Z,36.80
2022-08-24T15:21:09.980Z,36.60
2022-08-24T15:24:10.277Z,36.50
2022-08-24T15:27:44.131Z,36.40
2022-08-24T15:30:35.827Z,36.30
2022-08-24T15:33:24.758Z,36.30
2022-08-24T15:36:14.625Z,36.20
2022-08-24T15:39:04.709Z,36.20
2022-08-24T15:41:53.164Z,36.20
2022-08-24T15:44:44.175Z,36.30
2022-08-24T15:47:34.154Z,36.30
2022-08-24T15:50:25.789Z,36.40
2022-08-24T15:53:30.698Z,36.30
2022-08-24T15:56:35.835Z,36.30
2022-08-24T15:59:29.222Z,36.30
2022-08-24T16:02:29.057Z,36.20
2022-08-24T16:05:21.733Z,36.10
2022-08-24T16:08:13.273Z,36.10
2022-08-24T16:11:08.802Z,36.10
2022-08-24T16:13:57.254Z,36.00
2022-08-24T16:16:46.309Z,36.00
2022-08-24T16:19:36.273Z,36.00
2022-08-24T16:22:32.323Z,35.90
2022-08-24T16:25:25.922Z,35.80
2022-08-24T16:28:34.587Z,35.70
2022-08-24T16:31:47.055Z,35.70
2022-08-24T16:34:37.086Z,35.60
2022-08-24T16:37:26.080Z,35.50
2022-08-24T16:40:14.575Z,35.60
2022-08-24T16:43:03.942Z,35.50
2022-08-24T16:45:52.614Z,35.50
2022-08-24T16:48:41.222Z,35.50
2022-08-24T16:51:31.037Z,35.40
2022-08-24T16:54:19.644Z,35.30
2022-08-24T16:57:12.945Z,35.30
2022-08-24T17:00:01.429Z,35.20
2022-08-24T17:02:50.017Z,35.10
2022-08-24T17:05:38.541Z,35.00
2022-08-24T17:08:29.877Z,35.00
2022-08-24T17:11:19.453Z,34.90
2022-08-24T17:14:07.907Z,34.80
2022-08-24T17:16:56.396Z,34.80
2022-08-24T17:19:44.926Z,34.70
2022-08-24T17:22:33.439Z,34.60
2022-08-24T17:25:23.361Z,34.60
2022-08-24T17:28:11.939Z,34.40
2022-08-24T17:31:00.513Z,34.40
2022-08-24T17:33:49.175Z,34.40
2022-08-24T17:36:37.848Z,34.30
2022-08-24T17:41:28.848Z,34.20
2022-08-24T17:44:21.233Z,34.20
2022-08-24T17:47:09.751Z,34.10
2022-08-24T17:50:00.774Z,34.00
2022-08-24T17:52:59.128Z,34.00
2022-08-24T17:55:49.124Z,33.90
2022-08-24T17:58:59.024Z,33.80
2022-08-24T18:01:47.770Z,33.80
2022-08-24T18:04:36.974Z,33.70
2022-08-24T18:07:42.682Z,33.60
2022-08-24T18:10:34.472Z,33.60
2022-08-24T18:13:22.997Z,33.50
2022-08-24T18:16:16.873Z,33.40
2022-08-24T18:19:05.599Z,33.30
2022-08-24T18:21:54.225Z,33.20
2022-08-24T18:24:42.972Z,33.10
2022-08-24T18:27:32.283Z,32.90
2022-08-24T18:30:25.196Z,32.80
2022-08-24T18:33:18.771Z,32.60
2022-08-24T18:36:07.835Z,32.40
2022-08-24T18:38:56.470Z,32.20
2022-08-24T18:41:49.163Z,32.00
2022-08-24T18:44:38.188Z,31.80
2022-08-24T18:47:26.684Z,31.60
2022-08-24T18:50:16.618Z,31.30
2022-08-24T18:53:05.479Z,31.10
2022-08-24T18:55:54.082Z,30.90
2022-08-24T18:58:42.586Z,30.70
2022-08-24T19:01:31.156Z,30.50
2022-08-24T19:04:19.801Z,30.30
2022-08-24T19:07:19.291Z,30.10
2022-08-24T19:10:09.831Z,29.90
2022-08-24T19:12:59.951Z,29.70
2022-08-24T19:15:50.997Z,29.60
2022-08-24T19:18:39.713Z,29.40
2022-08-24T19:21:28.311Z,29.30
2022-08-24T19:24:18.645Z,29.10
2022-08-24T19:27:07.669Z,28.90
2022-08-24T19:29:56.560Z,28.70
2022-08-24T19:32:45.138Z,28.50
2022-08-24T19:35:34.153Z,28.30
2022-08-24T19:38:25.875Z,28.20
2022-08-24T19:41:17.538Z,28.00
2022-08-24T19:44:27.391Z,27.90
2022-08-24T19:47:16.740Z,27.80
2022-08-24T19:50:07.745Z,27.70
2022-08-24T19:52:57.550Z,27.60
2022-08-24T19:55:50.123Z,27.50
2022-08-24T19:58:44.397Z,27.40
2022-08-24T20:01:35.433Z,27.30
2022-08-24T20:04:24.028Z,27.30
2022-08-24T20:07:14.148Z,27.20
2022-08-24T20:10:05.024Z,27.20
2022-08-24T20:13:01.797Z,27.20
2022-08-24T20:15:52.422Z,27.10
2022-08-24T20:18:41.103Z,27.10
2022-08-24T20:21:30.245Z,27.10
2022-08-24T20:24:18.745Z,27.10
2022-08-24T20:27:07.382Z,27.00
2022-08-24T20:29:56.175Z,27.00
2022-08-24T20:32:47.956Z,27.00
2022-08-24T20:35:37.006Z,27.00
2022-08-24T20:38:25.531Z,26.90
2022-08-24T20:41:17.977Z,26.90
2022-08-24T20:44:07.806Z,26.90
2022-08-24T20:46:56.449Z,26.90
2022-08-24T20:49:46.377Z,26.90
2022-08-24T20:52:34.904Z,26.90
2022-08-24T20:55:23.640Z,26.90
2022-08-24T20:58:12.208Z,26.90
2022-08-24T21:01:00.848Z,26.90
2022-08-24T21:03:49.453Z,26.90
2022-08-24T21:06:40.437Z,26.90
2022-08-24T21:09:28.994Z,26.90
2022-08-24T21:12:17.482Z,26.90
2022-08-24T21:15:07.045Z,26.80
2022-08-24T21:17:55.604Z,26.80
2022-08-24T21:20:44.706Z,26.70
2022-08-24T21:23:54.032Z,26.70
2022-08-24T21:26:42.607Z,26.70
2022-08-24T21:29:31.370Z,26.60
2022-08-24T21:32:37.543Z,26.60
2022-08-24T21:35:25.979Z,26.60
2022-08-24T21:38:14.508Z,26.60
2022-08-24T21:41:05.603Z,26.60
2022-08-24T21:43:54.587Z,26.70
2022-08-24T21:46:43.412Z,26.70
2022-08-24T21:49:32.007Z,26.70
2022-08-24T21:52:20.490Z,26.80
2022-08-24T21:55:14.662Z,26.80
2022-08-24T21:58:05.887Z,26.80
2022-08-24T22:00:54.363Z,26.90
2022-08-24T22:03:47.771Z,26.90
2022-08-24T22:06:36.247Z,26.90
2022-08-24T22:09:24.741Z,26.90
2022-08-24T22:12:13.240Z,26.90
2022-08-24T22:15:03.165Z,26.90
2022-08-24T22:17:52.814Z,26.90
2022-08-24T22:20:41.423Z,26.90
2022-08-24T22:23:29.904Z,26.90
2022-08-24T22:26:18.358Z,26.90
2022-08-24T22:29:07.656Z,26.90
2022-08-24T22:31:57.499Z,26.80
2022-08-24T22:34:46.097Z,26.80
2022-08-24T22:37:34.943Z,27.00
2022-08-24T22:40:24.416Z,26.80
2022-08-24T22:43:13.205Z,26.80
2022-08-24T22:46:01.677Z,26.80
2022-08-24T22:48:51.515Z,26.90
2022-08-24T22:51:40.367Z,26.90
2022-08-24T22:54:29.568Z,26.90
2022-08-24T22:57:19.869Z,26.90
2022-08-24T23:00:11.176Z,26.90
2022-08-24T23:03:05.650Z,26.90
2022-08-24T23:05:55.625Z,26.90
2022-08-24T23:08:44.090Z,26.90
2022-08-24T23:11:32.670Z,26.90
2022-08-24T23:14:21.602Z,26.90
2022-08-24T23:17:10.138Z,26.90
2022-08-24T23:20:00.553Z,26.90
2022-08-24T23:22:50.666Z,27.00
2022-08-24T23:25:39.193Z,26.90
2022-08-24T23:28:27.665Z,27.00
2022-08-24T23:31:17.245Z,26.90
2022-08-24T23:34:07.834Z,26.90
2022-08-24T23:36:56.548Z,26.90
2022-08-24T23:39:46.439Z,26.90
2022-08-24T23:42:34.980Z,26.90
2022-08-24T23:45:28.279Z,26.90
2022-08-24T23:48:17.128Z,26.90
2022-08-24T23:51:06.019Z,26.80
2022-08-24T23:53:54.493Z,26.80
2022-08-24T23:56:45.707Z,26.80
2022-08-24T23:59:34.157Z,26.80
